createdAt,value
2023-05-04T00:03:40.481Z,4.57
2023-05-04T00:08:42.525Z,3.22
2023-05-04T00:13:44.555Z,2.40
2023-05-04T00:18:46.441Z,2.35
2023-05-04T00:23:51.769Z,1.88
2023-05-04T00:28:53.708Z,2.58
2023-05-04T00:33:55.570Z,2.15
2023-05-04T00:38:57.402Z,2.88
2023-05-04T00:43:59.914Z,2.90
2023-05-04T00:49:02.321Z,2.35
2023-05-04T00:54:05.161Z,2.38
2023-05-04T00:59:07.107Z,2.58
2023-05-04T01:04:09.825Z,2.80
2023-05-04T01:09:37.400Z,2.95
2023-05-04T01:14:40.048Z,2.40
2023-05-04T01:19:41.870Z,2.80
2023-05-04T01:24:43.919Z,2.72
2023-05-04T01:30:02.905Z,2.38
2023-05-04T01:35:06.373Z,3.10
2023-05-04T01:40:09.514Z,3.08
2023-05-04T01:52:01.604Z,2.58
2023-05-04T01:57:03.613Z,2.33
2023-05-04T02:02:05.680Z,3.58
2023-05-04T02:07:08.016Z,2.97
2023-05-04T02:12:10.011Z,2.55
2023-05-04T02:17:12.082Z,2.72
2023-05-04T02:22:14.067Z,2.38
2023-05-04T02:27:16.228Z,3.60
2023-05-04T02:32:18.155Z,2.80
2023-05-04T02:37:20.116Z,3.33
2023-05-04T02:42:22.154Z,3.70
2023-05-04T02:47:24.120Z,3.53
2023-05-04T02:52:26.160Z,3.53
2023-05-04T02:57:28.106Z,3.53
2023-05-04T03:03:12.795Z,2.63
2023-05-04T03:08:19.807Z,2.80
2023-05-04T03:13:27.686Z,3.17
2023-05-04T03:18:36.610Z,3.10
2023-05-04T03:24:07.610Z,3.47
2023-05-04T03:29:10.614Z,2.70
2023-05-04T03:34:15.524Z,2.92
2023-05-04T03:39:18.012Z,2.80
2023-05-04T03:44:20.619Z,2.88
2023-05-04T03:49:22.572Z,2.55
2023-05-04T03:54:24.466Z,3.60
2023-05-04T03:59:26.353Z,3.08
2023-05-04T04:04:28.734Z,2.97
2023-05-04T04:09:32.351Z,3.00
2023-05-04T04:14:34.253Z,2.80
2023-05-04T04:19:36.064Z,2.90
2023-05-04T04:24:38.257Z,2.60
2023-05-04T04:29:40.139Z,2.40
2023-05-04T04:34:41.893Z,2.53
2023-05-04T04:39:43.786Z,2.28
2023-05-04T04:44:45.798Z,2.67
2023-05-04T04:49:47.886Z,1.95
2023-05-04T04:54:49.800Z,2.42
2023-05-04T04:59:51.596Z,2.38
2023-05-04T05:04:54.668Z,2.50
2023-05-04T05:09:56.834Z,2.17
2023-05-04T05:14:58.666Z,2.00
2023-05-04T05:20:00.532Z,2.17
2023-05-04T05:25:03.166Z,2.35
2023-05-04T05:30:06.387Z,2.50
2023-05-04T05:35:09.618Z,2.47
2023-05-04T05:40:12.414Z,2.00
2023-05-04T05:45:14.246Z,2.42
2023-05-04T05:50:16.068Z,2.00
2023-05-04T05:55:17.936Z,2.58
2023-05-04T06:00:20.091Z,1.80
2023-05-04T06:05:21.965Z,2.55
2023-05-04T06:10:23.915Z,1.60
2023-05-04T06:15:26.046Z,1.95
2023-05-04T06:20:29.241Z,2.45
2023-05-04T06:25:31.398Z,2.03
2023-05-04T06:30:33.592Z,2.40
2023-05-04T06:35:35.727Z,2.40
2023-05-04T06:40:37.797Z,2.10
2023-05-04T06:45:40.021Z,2.08
2023-05-04T06:50:42.351Z,2.22
2023-05-04T06:55:44.461Z,2.35
2023-05-04T07:00:46.323Z,2.30
2023-05-04T07:05:50.574Z,2.25
2023-05-04T07:10:52.379Z,2.22
2023-05-04T07:15:54.302Z,2.53
2023-05-04T07:21:01.744Z,2.33
2023-05-04T07:26:13.457Z,2.58
2023-05-04T07:31:16.041Z,2.63
2023-05-04T07:36:18.190Z,2.58
2023-05-04T07:41:22.999Z,2.78
2023-05-04T07:46:24.890Z,2.85
2023-05-04T07:51:26.728Z,3.10
2023-05-04T07:56:28.776Z,2.30
2023-05-04T08:01:30.641Z,1.98
2023-05-04T08:06:34.767Z,2.80
2023-05-04T08:11:37.946Z,1.80
2023-05-04T08:16:40.543Z,1.52
2023-05-04T08:21:42.445Z,2.00
2023-05-04T08:26:49.604Z,1.52
2023-05-04T08:31:59.704Z,1.35
2023-05-04T08:37:02.642Z,1.60
2023-05-04T08:42:04.675Z,1.30
2023-05-04T08:47:06.430Z,1.75
2023-05-04T08:52:09.451Z,1.65
2023-05-04T08:57:12.574Z,1.20
2023-05-04T09:02:14.584Z,1.85
2023-05-04T09:07:18.110Z,1.50
2023-05-04T09:12:23.049Z,1.42
2023-05-04T09:17:29.461Z,1.50
2023-05-04T09:22:31.543Z,1.48
2023-05-04T09:27:33.446Z,1.27
2023-05-04T09:32:50.833Z,1.33
2023-05-04T09:37:52.758Z,1.40
2023-05-04T09:42:58.155Z,1.40
2023-05-04T09:48:00.262Z,1.42
2023-05-04T09:53:03.884Z,1.75
2023-05-04T09:58:06.505Z,1.40
2023-05-04T10:03:08.789Z,1.67
2023-05-04T10:08:12.637Z,2.28
2023-05-04T10:13:14.545Z,1.80
2023-05-04T10:18:34.075Z,1.40
2023-05-04T10:23:58.230Z,1.50
2023-05-04T10:29:13.776Z,1.13
2023-05-04T10:34:30.195Z,1.45
2023-05-04T10:39:35.586Z,1.60
2023-05-04T10:44:55.436Z,1.70
2023-05-04T10:50:06.465Z,1.42
2023-05-04T10:55:09.144Z,1.67
2023-05-04T11:00:12.140Z,1.30
2023-05-04T11:05:18.482Z,1.52
2023-05-04T11:10:22.679Z,1.52
2023-05-04T11:15:24.644Z,1.52
2023-05-04T11:20:27.678Z,1.73
2023-05-04T11:25:30.820Z,1.80
2023-05-04T11:30:34.468Z,1.40
2023-05-04T11:35:36.437Z,1.42
2023-05-04T11:40:41.409Z,1.23
2023-05-04T11:45:44.507Z,1.40
2023-05-04T11:50:47.865Z,1.48
2023-05-04T11:55:50.563Z,1.55
2023-05-04T12:00:56.880Z,1.50
2023-05-04T12:06:00.006Z,1.40
2023-05-04T12:11:25.577Z,1.60
2023-05-04T12:16:27.714Z,1.58
2023-05-04T12:21:29.816Z,1.50
2023-05-04T12:26:31.774Z,1.10
2023-05-04T12:31:33.888Z,1.50
2023-05-04T12:36:35.708Z,1.60
2023-05-04T12:41:37.723Z,1.65
2023-05-04T12:46:39.753Z,0.95
2023-05-04T12:51:41.776Z,1.17
2023-05-04T12:56:43.871Z,1.17
2023-05-04T13:01:46.175Z,1.50
2023-05-04T13:06:48.694Z,1.10
2023-05-04T13:11:50.448Z,1.30
2023-05-04T13:16:52.818Z,1.27
2023-05-04T13:21:54.713Z,1.65
2023-05-04T13:26:56.704Z,1.40
2023-05-04T13:31:59.674Z,1.27
2023-05-04T13:37:01.600Z,1.20
2023-05-04T13:42:04.061Z,1.38
2023-05-04T13:47:06.247Z,1.33
2023-05-04T13:52:08.807Z,0.85
2023-05-04T13:57:10.738Z,0.85
2023-05-04T14:02:12.716Z,1.20
2023-05-04T14:07:14.614Z,1.05
2023-05-04T14:12:18.586Z,1.10
2023-05-04T14:17:20.654Z,1.20
2023-05-04T14:22:22.594Z,1.25
2023-05-04T14:27:24.579Z,1.20
2023-05-04T14:32:26.542Z,1.35
2023-05-04T14:37:28.435Z,1.55
2023-05-04T14:42:30.236Z,1.60
2023-05-04T14:47:33.579Z,1.10
2023-05-04T14:52:35.613Z,1.30
2023-05-04T14:57:37.587Z,1.35
2023-05-04T15:02:39.543Z,1.45
2023-05-04T15:07:41.631Z,1.77
2023-05-04T15:12:43.573Z,1.10
2023-05-04T15:17:45.599Z,1.50
2023-05-04T15:22:49.174Z,1.17
2023-05-04T15:27:50.999Z,1.13
2023-05-04T15:32:53.072Z,1.20
2023-05-04T15:37:55.340Z,1.10
2023-05-04T15:42:57.394Z,1.20
2023-05-04T15:48:00.373Z,1.35
2023-05-04T15:53:02.354Z,1.10
2023-05-04T15:58:04.354Z,1.00
2023-05-04T16:03:06.234Z,1.20
2023-05-04T16:08:08.183Z,0.95
2023-05-04T16:13:12.013Z,1.23
2023-05-04T16:18:14.128Z,0.90
2023-05-04T16:23:17.514Z,2.45
2023-05-04T16:28:20.571Z,1.02
2023-05-04T16:33:22.571Z,1.10
2023-05-04T16:38:24.382Z,1.10
2023-05-04T16:43:26.556Z,0.93
2023-05-04T16:48:28.402Z,1.38
2023-05-04T16:53:30.489Z,1.33
2023-05-04T16:58:32.351Z,1.08
2023-05-04T17:03:34.320Z,1.20
2023-05-04T17:08:36.486Z,1.60
2023-05-04T17:13:38.385Z,1.70
2023-05-04T17:18:40.493Z,1.73
2023-05-04T17:23:43.477Z,1.40
2023-05-04T17:28:48.426Z,1.30
2023-05-04T17:33:50.259Z,1.35
2023-05-04T17:38:52.404Z,1.38
2023-05-04T17:43:55.670Z,1.10
2023-05-04T17:48:57.413Z,1.00
2023-05-04T17:53:59.213Z,1.50
2023-05-04T17:59:01.092Z,1.05
2023-05-04T18:04:05.720Z,1.38
2023-05-04T18:09:07.607Z,1.60
2023-05-04T18:14:09.406Z,0.90
2023-05-04T18:19:11.146Z,1.05
2023-05-04T18:24:12.974Z,1.42
2023-05-04T18:29:18.889Z,0.90
2023-05-04T18:34:22.817Z,1.23
2023-05-04T18:39:24.780Z,1.20
2023-05-04T18:44:26.607Z,1.10
2023-05-04T18:49:31.369Z,1.40
2023-05-04T18:54:33.545Z,1.48
2023-05-04T18:59:35.511Z,1.73
2023-05-04T19:04:38.310Z,1.13
2023-05-04T19:09:40.190Z,1.15
2023-05-04T19:14:44.058Z,1.75
2023-05-04T19:19:45.920Z,1.33
2023-05-04T19:24:51.742Z,1.50
2023-05-04T19:29:56.156Z,1.55
2023-05-04T19:34:58.219Z,1.70
2023-05-04T19:39:59.956Z,1.52
2023-05-04T19:45:01.829Z,1.38
2023-05-04T19:50:03.904Z,1.75
2023-05-04T19:55:06.998Z,1.20
2023-05-04T20:00:12.858Z,1.40
2023-05-04T20:05:14.816Z,2.20
2023-05-04T20:10:16.667Z,1.60
2023-05-04T20:15:18.460Z,1.50
2023-05-04T20:20:22.025Z,1.30
2023-05-04T20:25:23.957Z,1.42
2023-05-04T20:30:28.278Z,1.33
2023-05-04T20:35:30.168Z,1.55
2023-05-04T20:40:32.212Z,1.52
2023-05-04T20:45:34.682Z,1.75
2023-05-04T20:50:36.702Z,1.10
2023-05-04T20:55:40.572Z,1.20
2023-05-04T21:00:42.454Z,1.70
2023-05-04T21:05:44.300Z,1.40
2023-05-04T21:10:48.993Z,1.50
2023-05-04T21:15:51.520Z,2.78
2023-05-04T21:20:54.246Z,1.10
2023-05-04T21:26:03.582Z,1.92
2023-05-04T21:31:09.256Z,1.52
2023-05-04T21:36:14.939Z,1.42
2023-05-04T21:41:17.059Z,1.40
2023-05-04T21:46:18.921Z,1.80
2023-05-04T21:51:21.172Z,1.35
2023-05-04T21:56:22.949Z,1.52
2023-05-04T22:01:24.839Z,1.52
2023-05-04T22:06:27.409Z,1.52
2023-05-04T22:11:29.757Z,1.30
2023-05-04T22:16:31.743Z,1.45
2023-05-04T22:21:33.663Z,1.73
2023-05-04T22:26:35.680Z,1.58
2023-05-04T22:31:37.536Z,1.17
2023-05-04T22:36:39.624Z,1.83
2023-05-04T22:41:41.494Z,1.50
2023-05-04T22:46:43.224Z,1.48
2023-05-04T22:51:45.127Z,2.38
2023-05-04T22:56:46.834Z,2.50
2023-05-04T23:01:50.368Z,2.45
2023-05-04T23:06:53.352Z,3.05
2023-05-04T23:11:55.103Z,3.47
2023-05-04T23:16:56.851Z,4.35
2023-05-04T23:21:58.819Z,7.47
2023-05-04T23:27:00.552Z,5.70
2023-05-04T23:32:02.481Z,3.92
2023-05-04T23:37:04.516Z,4.05
2023-05-04T23:42:06.370Z,3.75
2023-05-04T23:47:08.111Z,3.17
2023-05-04T23:52:09.813Z,2.33
2023-05-04T23:57:11.719Z,2.13
